createdAt,value
2017-09-22T00:00:16.757Z,11.40
2017-09-22T00:02:44.678Z,11.40
2017-09-22T00:05:12.214Z,11.40
2017-09-22T00:07:39.816Z,11.40
2017-09-22T00:10:07.362Z,11.30
2017-09-22T00:12:34.989Z,11.40
2017-09-22T00:15:02.924Z,11.40
2017-09-22T00:17:30.462Z,11.40
2017-09-22T00:19:57.994Z,11.30
2017-09-22T00:22:25.505Z,11.30
2017-09-22T00:24:53.030Z,11.30
2017-09-22T00:27:20.931Z,11.30
2017-09-22T00:29:48.446Z,11.30
2017-09-22T00:32:16.005Z,11.30
2017-09-22T00:34:43.530Z,11.30
2017-09-22T00:37:11.085Z,11.30
2017-09-22T00:39:38.620Z,11.30
2017-09-22T00:42:06.157Z,11.20
2017-09-22T00:44:33.682Z,11.20
2017-09-22T00:47:01.210Z,11.20
2017-09-22T00:49:28.750Z,11.10
2017-09-22T00:51:56.268Z,11.10
2017-09-22T00:54:23.814Z,11.00
2017-09-22T00:56:51.326Z,11.00
2017-09-22T00:59:18.858Z,11.00
2017-09-22T01:01:46.766Z,10.90
2017-09-22T01:04:14.287Z,10.90
2017-09-22T01:06:41.818Z,10.90
2017-09-22T01:09:09.347Z,10.80
2017-09-22T01:11:36.910Z,10.80
2017-09-22T01:14:04.423Z,10.80
2017-09-22T01:16:32.350Z,10.70
2017-09-22T01:18:59.853Z,10.70
2017-09-22T01:21:27.357Z,10.70
2017-09-22T01:23:55.272Z,10.60
2017-09-22T01:26:22.783Z,10.70
2017-09-22T01:28:50.318Z,10.60
2017-09-22T01:31:17.825Z,10.60
2017-09-22T01:33:45.336Z,10.50
2017-09-22T01:36:12.870Z,10.50
2017-09-22T01:38:40.377Z,10.50
2017-09-22T01:41:08.294Z,10.40
2017-09-22T01:43:35.806Z,10.40
2017-09-22T01:46:03.322Z,10.40
2017-09-22T01:48:30.850Z,10.40
2017-09-22T01:50:58.749Z,10.30
2017-09-22T01:53:26.294Z,10.30
2017-09-22T01:55:53.805Z,10.30
2017-09-22T01:58:21.729Z,10.30
2017-09-22T02:00:49.237Z,10.30
2017-09-22T02:03:16.777Z,10.20
2017-09-22T02:05:44.278Z,10.20
2017-09-22T02:08:12.181Z,10.10
2017-09-22T02:10:39.713Z,10.10
2017-09-22T02:13:07.275Z,10.10
2017-09-22T02:15:34.815Z,10.00
2017-09-22T02:18:02.336Z,10.00
2017-09-22T02:20:29.875Z,9.90
2017-09-22T02:22:57.383Z,9.90
2017-09-22T02:25:24.912Z,9.90
2017-09-22T02:27:52.417Z,9.80
2017-09-22T02:30:19.937Z,9.80
2017-09-22T02:32:47.471Z,9.80
2017-09-22T02:35:14.971Z,9.80
2017-09-22T02:37:42.498Z,9.70
2017-09-22T02:40:09.993Z,9.70
2017-09-22T02:42:37.910Z,9.70
2017-09-22T02:45:05.419Z,9.70
2017-09-22T02:47:32.974Z,9.70
2017-09-22T02:50:00.558Z,9.70
2017-09-22T02:52:28.110Z,9.80
2017-09-22T02:54:55.663Z,9.80
2017-09-22T02:57:23.606Z,9.80
2017-09-22T02:59:51.152Z,9.90
2017-09-22T03:02:18.698Z,9.90
2017-09-22T03:04:46.228Z,9.90
2017-09-22T03:07:13.748Z,10.00
2017-09-22T03:09:41.289Z,10.00
2017-09-22T03:12:08.817Z,10.00
2017-09-22T03:14:36.321Z,10.10
2017-09-22T03:17:04.250Z,10.10
2017-09-22T03:19:31.753Z,10.10
2017-09-22T03:21:59.275Z,10.20
2017-09-22T03:24:26.794Z,10.20
2017-09-22T03:26:54.322Z,10.20
2017-09-22T03:29:21.829Z,10.20
2017-09-22T03:31:49.337Z,10.20
2017-09-22T03:34:17.261Z,10.20
2017-09-22T03:36:44.777Z,10.20
2017-09-22T03:39:12.302Z,10.20
2017-09-22T03:41:39.807Z,10.20
2017-09-22T03:44:07.325Z,10.10
2017-09-22T03:46:34.833Z,10.20
2017-09-22T03:49:02.373Z,10.10
2017-09-22T03:51:29.909Z,10.20
2017-09-22T03:53:57.818Z,10.20
2017-09-22T03:56:25.338Z,10.20
2017-09-22T03:58:52.850Z,10.20
2017-09-22T04:01:20.781Z,10.20
2017-09-22T04:03:48.302Z,10.20
2017-09-22T04:06:15.825Z,10.20
2017-09-22T04:08:43.342Z,10.10
2017-09-22T04:11:10.891Z,10.10
2017-09-22T04:13:38.414Z,10.10
2017-09-22T04:16:06.329Z,10.10
2017-09-22T04:18:33.849Z,10.10
2017-09-22T04:21:01.348Z,10.00
2017-09-22T04:23:29.264Z,10.10
2017-09-22T04:25:56.773Z,10.10
2017-09-22T04:28:24.305Z,10.00
2017-09-22T04:30:52.206Z,10.10
2017-09-22T04:33:19.758Z,10.10
2017-09-22T04:35:47.270Z,10.10
2017-09-22T04:38:14.781Z,10.10
2017-09-22T04:40:42.698Z,10.00
2017-09-22T04:43:10.202Z,10.10
2017-09-22T04:45:37.735Z,10.10
2017-09-22T04:48:05.248Z,10.00
2017-09-22T04:50:33.178Z,10.00
2017-09-22T04:53:00.683Z,10.00
2017-09-22T04:55:28.227Z,10.00
2017-09-22T04:57:55.738Z,9.90
2017-09-22T05:00:23.632Z,9.90
2017-09-22T05:02:51.154Z,9.90
2017-09-22T05:05:18.679Z,9.90
2017-09-22T05:07:46.610Z,9.80
2017-09-22T05:10:14.134Z,9.90
2017-09-22T05:12:41.678Z,9.90
2017-09-22T05:15:09.191Z,9.90
2017-09-22T05:17:36.731Z,9.90
2017-09-22T05:20:04.241Z,9.90
2017-09-22T05:22:31.747Z,9.80
2017-09-22T05:24:59.279Z,9.80
2017-09-22T05:27:26.788Z,9.80
2017-09-22T05:29:54.701Z,9.70
2017-09-22T05:32:22.202Z,9.70
2017-09-22T05:34:49.735Z,9.70
2017-09-22T05:37:17.244Z,9.70
2017-09-22T05:39:44.753Z,9.60
2017-09-22T05:42:12.266Z,9.60
2017-09-22T05:44:39.795Z,9.60
2017-09-22T05:47:07.703Z,9.70
2017-09-22T05:49:35.213Z,9.70
2017-09-22T05:52:02.764Z,9.70
2017-09-22T05:54:30.265Z,9.70
2017-09-22T05:56:57.800Z,9.80
2017-09-22T05:59:25.314Z,9.90
2017-09-22T06:01:52.830Z,9.90
2017-09-22T06:04:20.368Z,10.00
2017-09-22T06:06:47.927Z,10.10
2017-09-22T06:09:15.447Z,10.10
2017-09-22T06:11:43.372Z,10.30
2017-09-22T06:14:10.894Z,10.30
2017-09-22T06:16:38.422Z,10.30
2017-09-22T06:19:05.941Z,10.30
2017-09-22T06:21:33.461Z,10.40
2017-09-22T06:24:01.106Z,10.40
2017-09-22T06:26:28.655Z,10.50
2017-09-22T06:28:56.186Z,10.50
2017-09-22T06:31:23.710Z,10.60
2017-09-22T06:33:51.264Z,10.60
2017-09-22T06:36:20.807Z,10.70
2017-09-22T06:38:48.329Z,10.70
2017-09-22T06:41:17.014Z,10.70
2017-09-22T06:43:44.563Z,10.70
2017-09-22T06:46:12.164Z,10.80
2017-09-22T06:48:39.727Z,10.80
2017-09-22T06:51:07.325Z,10.80
2017-09-22T06:53:34.878Z,10.90
2017-09-22T06:56:02.454Z,10.90
2017-09-22T06:58:30.968Z,11.10
2017-09-22T07:00:58.518Z,11.10
2017-09-22T07:03:26.059Z,11.10
2017-09-22T07:05:53.622Z,11.20
2017-09-22T07:08:21.158Z,11.20
2017-09-22T07:10:48.751Z,11.30
2017-09-22T07:13:16.692Z,11.40
2017-09-22T07:15:46.221Z,11.40
2017-09-22T07:18:13.776Z,11.50
2017-09-22T07:20:41.348Z,11.50
2017-09-22T07:23:08.891Z,11.60
2017-09-22T07:25:36.459Z,11.70
2017-09-22T07:28:04.457Z,11.90
2017-09-22T07:30:32.038Z,11.90
2017-09-22T07:32:59.622Z,12.00
2017-09-22T07:35:27.200Z,12.00
2017-09-22T07:37:57.206Z,12.30
2017-09-22T07:40:24.727Z,12.30
2017-09-22T07:42:52.296Z,12.40
2017-09-22T07:45:19.841Z,12.70
2017-09-22T07:47:47.384Z,12.90
2017-09-22T07:50:14.944Z,13.30
2017-09-22T07:52:42.494Z,13.50
2017-09-22T07:55:10.042Z,13.80
2017-09-22T07:57:37.582Z,14.00
2017-09-22T08:00:05.168Z,14.20
2017-09-22T08:02:33.669Z,14.30
2017-09-22T08:05:02.093Z,14.30
2017-09-22T08:07:29.698Z,14.40
2017-09-22T08:09:57.230Z,14.60
2017-09-22T08:12:25.769Z,14.80
2017-09-22T08:14:59.859Z,15.00
2017-09-22T08:17:27.420Z,15.10
2017-09-22T08:19:55.019Z,15.20
2017-09-22T08:22:22.566Z,15.20
2017-09-22T08:24:50.114Z,15.30
2017-09-22T08:27:18.094Z,15.40
2017-09-22T08:29:45.625Z,15.40
2017-09-22T08:32:13.568Z,15.60
2017-09-22T08:34:41.499Z,15.60
2017-09-22T08:37:09.030Z,15.60
2017-09-22T08:39:36.579Z,15.70
2017-09-22T08:42:04.096Z,15.80
2017-09-22T08:44:31.671Z,15.70
2017-09-22T08:46:59.183Z,15.80
2017-09-22T08:49:26.735Z,15.90
2017-09-22T08:51:54.252Z,16.10
2017-09-22T08:54:22.518Z,16.30
2017-09-22T08:56:50.063Z,16.30
2017-09-22T08:59:17.578Z,16.30
2017-09-22T09:01:45.145Z,16.30
2017-09-22T09:04:12.666Z,16.40
2017-09-22T09:06:40.195Z,16.40
2017-09-22T09:09:07.701Z,16.40
2017-09-22T09:11:35.243Z,16.30
2017-09-22T09:14:02.748Z,16.30
2017-09-22T09:16:31.431Z,16.20
2017-09-22T09:18:58.962Z,16.30
2017-09-22T09:21:26.866Z,16.30
2017-09-22T09:23:55.211Z,16.30
2017-09-22T09:26:22.731Z,16.40
2017-09-22T09:28:50.659Z,16.40
2017-09-22T09:31:18.168Z,16.50
2017-09-22T09:33:45.690Z,16.50
2017-09-22T09:36:13.207Z,16.70
2017-09-22T09:38:41.121Z,16.70
2017-09-22T09:41:08.647Z,16.70
2017-09-22T09:43:36.155Z,16.70
2017-09-22T09:46:03.679Z,16.90
2017-09-22T09:48:31.193Z,16.90
2017-09-22T09:50:58.713Z,17.00
2017-09-22T09:53:26.215Z,17.10
2017-09-22T09:55:54.157Z,17.30
2017-09-22T09:58:21.666Z,17.30
2017-09-22T10:00:49.163Z,17.40
2017-09-22T10:03:17.078Z,17.50
2017-09-22T10:05:44.588Z,17.50
2017-09-22T10:08:12.115Z,17.50
2017-09-22T10:10:39.625Z,17.60
2017-09-22T10:13:07.277Z,17.70
2017-09-22T10:15:36.774Z,17.80
2017-09-22T10:18:04.679Z,17.70
2017-09-22T10:20:32.228Z,17.70
2017-09-22T10:22:59.788Z,17.70
2017-09-22T10:25:27.955Z,17.60
2017-09-22T10:27:55.964Z,17.50
2017-09-22T10:30:23.502Z,17.60
2017-09-22T10:32:51.019Z,17.60
2017-09-22T10:35:18.564Z,17.70
2017-09-22T10:37:46.468Z,17.70
2017-09-22T10:40:13.988Z,17.70
2017-09-22T10:42:41.534Z,17.70
2017-09-22T10:45:09.067Z,17.70
2017-09-22T10:47:36.970Z,17.80
2017-09-22T10:50:04.488Z,17.80
2017-09-22T10:52:32.018Z,17.80
2017-09-22T10:54:59.757Z,17.90
2017-09-22T10:57:27.689Z,17.90
2017-09-22T10:59:55.203Z,17.90
2017-09-22T11:02:22.752Z,17.90
2017-09-22T11:04:50.287Z,17.90
2017-09-22T11:07:17.837Z,17.90
2017-09-22T11:09:45.399Z,17.90
2017-09-22T11:12:12.974Z,18.00
2017-09-22T11:14:40.549Z,18.00
2017-09-22T11:17:08.071Z,18.10
2017-09-22T11:19:35.633Z,18.00
2017-09-22T11:22:03.184Z,18.00
2017-09-22T11:24:30.722Z,18.00
2017-09-22T11:27:11.688Z,18.10
2017-09-22T11:29:46.969Z,18.10
2017-09-22T11:32:18.331Z,18.10
2017-09-22T11:34:45.936Z,18.00
2017-09-22T11:37:13.529Z,18.00
2017-09-22T11:39:41.112Z,17.90
2017-09-22T11:42:08.669Z,17.90
2017-09-22T11:45:01.151Z,17.90
2017-09-22T11:50:24.882Z,18.00
2017-09-22T11:52:52.423Z,18.00
2017-09-22T11:55:20.051Z,18.00
2017-09-22T11:57:47.684Z,18.00
2017-09-22T12:00:15.599Z,18.10
2017-09-22T12:02:43.126Z,18.10
2017-09-22T12:05:11.250Z,18.10
2017-09-22T12:07:38.788Z,18.00
2017-09-22T12:10:06.328Z,18.00
2017-09-22T12:12:33.847Z,18.00
2017-09-22T12:15:01.375Z,18.00
2017-09-22T12:17:28.894Z,18.00
2017-09-22T12:19:56.452Z,18.00
2017-09-22T12:22:23.968Z,18.00
2017-09-22T12:24:51.487Z,18.10
2017-09-22T12:27:19.023Z,18.20
2017-09-22T12:29:46.539Z,18.10
2017-09-22T12:32:14.074Z,18.10
2017-09-22T12:34:41.991Z,18.30
2017-09-22T12:37:10.519Z,18.30
2017-09-22T12:39:38.055Z,18.30
2017-09-22T12:42:05.606Z,18.30
2017-09-22T12:44:33.124Z,18.30
2017-09-22T12:47:00.670Z,18.40
2017-09-22T12:49:28.192Z,18.40
2017-09-22T12:51:55.719Z,18.30
2017-09-22T12:54:23.257Z,18.20
2017-09-22T12:56:50.773Z,18.20
2017-09-22T12:59:18.311Z,18.20
2017-09-22T13:01:45.839Z,18.20
2017-09-22T13:04:13.368Z,18.20
2017-09-22T13:06:41.308Z,18.20
2017-09-22T13:09:08.841Z,18.20
2017-09-22T13:11:36.748Z,18.30
2017-09-22T13:14:04.700Z,18.30
2017-09-22T13:16:32.243Z,18.30
2017-09-22T13:18:59.761Z,18.30
2017-09-22T13:21:27.292Z,18.50
2017-09-22T13:23:55.214Z,18.70
2017-09-22T13:26:22.779Z,18.70
2017-09-22T13:28:50.683Z,18.80
2017-09-22T13:31:18.219Z,18.80
2017-09-22T13:33:45.735Z,18.80
2017-09-22T13:36:13.278Z,18.70
2017-09-22T13:38:40.791Z,18.70
2017-09-22T13:41:08.340Z,18.80
2017-09-22T13:43:35.871Z,18.70
2017-09-22T13:46:03.384Z,18.70
2017-09-22T13:48:31.312Z,18.70
2017-09-22T13:50:58.839Z,18.60
2017-09-22T13:53:26.383Z,18.60
2017-09-22T13:55:53.901Z,18.60
2017-09-22T13:58:21.433Z,18.50
2017-09-22T14:00:48.975Z,18.50
2017-09-22T14:03:16.533Z,18.40
2017-09-22T14:05:44.443Z,18.30
2017-09-22T14:08:12.029Z,18.30
2017-09-22T14:10:40.603Z,18.30
2017-09-22T14:13:08.127Z,18.20
2017-09-22T14:15:35.663Z,18.20
2017-09-22T14:18:03.199Z,18.20
2017-09-22T14:20:30.733Z,18.10
2017-09-22T14:22:58.331Z,18.10
2017-09-22T14:25:25.896Z,18.10
2017-09-22T14:27:53.412Z,18.00
2017-09-22T14:30:20.945Z,18.00
2017-09-22T14:32:48.469Z,18.00
2017-09-22T14:35:16.016Z,18.00
2017-09-22T14:37:43.551Z,18.00
2017-09-22T14:40:11.068Z,18.00
2017-09-22T14:42:40.055Z,18.00
2017-09-22T14:45:07.567Z,18.00
2017-09-22T14:47:35.502Z,18.00
2017-09-22T14:50:03.366Z,18.00
2017-09-22T14:52:30.875Z,18.10
2017-09-22T14:54:58.795Z,18.20
2017-09-22T14:57:26.303Z,18.20
2017-09-22T14:59:53.843Z,18.30
2017-09-22T15:02:21.877Z,18.30
2017-09-22T15:04:49.556Z,18.30
2017-09-22T15:07:17.192Z,18.30
2017-09-22T15:09:45.422Z,18.20
2017-09-22T15:12:12.959Z,18.20
2017-09-22T15:14:41.780Z,18.20
2017-09-22T15:17:10.420Z,18.20
2017-09-22T15:19:37.952Z,18.10
2017-09-22T15:22:05.499Z,18.10
2017-09-22T15:24:33.031Z,18.00
2017-09-22T15:27:00.578Z,18.00
2017-09-22T15:29:28.099Z,18.00
2017-09-22T15:31:55.703Z,18.00
2017-09-22T15:34:23.221Z,18.10
2017-09-22T15:36:51.171Z,18.10
2017-09-22T15:39:18.755Z,18.10
2017-09-22T15:41:46.271Z,18.10
2017-09-22T15:44:13.815Z,18.10
2017-09-22T15:46:41.343Z,18.10
2017-09-22T15:49:10.043Z,18.10
2017-09-22T15:51:37.575Z,18.00
2017-09-22T15:54:05.126Z,18.00
2017-09-22T15:56:32.647Z,18.00
2017-09-22T15:59:00.243Z,17.90
2017-09-22T16:01:27.835Z,17.90
2017-09-22T16:03:55.443Z,17.90
2017-09-22T16:06:23.000Z,17.80
2017-09-22T16:08:50.524Z,17.80
2017-09-22T16:11:18.065Z,17.80
2017-09-22T16:13:45.593Z,17.70
2017-09-22T16:16:13.214Z,17.70
2017-09-22T16:18:40.748Z,17.70
2017-09-22T16:21:08.288Z,17.70
2017-09-22T16:23:35.801Z,17.70
2017-09-22T16:26:03.383Z,17.70
2017-09-22T16:28:30.974Z,17.60
2017-09-22T16:30:58.531Z,17.60
2017-09-22T16:33:26.048Z,17.60
2017-09-22T16:35:53.960Z,17.60
2017-09-22T16:38:21.567Z,17.60
2017-09-22T16:40:49.549Z,17.50
2017-09-22T16:43:17.139Z,17.60
2017-09-22T16:45:44.659Z,17.50
2017-09-22T16:48:12.193Z,17.40
2017-09-22T16:50:40.105Z,17.40
2017-09-22T16:53:07.659Z,17.40
2017-09-22T16:55:35.213Z,17.30
2017-09-22T16:58:02.733Z,17.20
2017-09-22T17:00:30.280Z,17.20
2017-09-22T17:02:58.193Z,17.00
2017-09-22T17:05:25.727Z,17.00
2017-09-22T17:07:53.242Z,16.90
2017-09-22T17:10:21.171Z,16.80
2017-09-22T17:12:49.087Z,16.80
2017-09-22T17:15:16.620Z,16.80
2017-09-22T17:17:44.134Z,16.80
2017-09-22T17:20:11.723Z,16.70
2017-09-22T17:22:40.371Z,16.70
2017-09-22T17:25:08.284Z,16.60
2017-09-22T17:27:36.815Z,16.60
2017-09-22T17:30:04.325Z,16.50
2017-09-22T17:32:31.863Z,16.50
2017-09-22T17:34:59.392Z,16.50
2017-09-22T17:37:27.023Z,16.40
2017-09-22T17:39:55.007Z,16.30
2017-09-22T17:42:22.539Z,16.40
2017-09-22T17:44:50.104Z,16.30
2017-09-22T17:47:17.649Z,16.20
2017-09-22T17:49:45.176Z,16.20
2017-09-22T17:52:12.695Z,16.10
2017-09-22T17:54:40.617Z,16.10
2017-09-22T17:57:08.141Z,16.00
2017-09-22T17:59:35.671Z,15.90
2017-09-22T18:02:03.193Z,15.90
2017-09-22T18:04:30.746Z,15.80
2017-09-22T18:06:58.275Z,15.70
2017-09-22T18:09:25.933Z,15.70
2017-09-22T18:11:53.454Z,15.60
2017-09-22T18:14:21.416Z,15.50
2017-09-22T18:16:49.095Z,15.60
2017-09-22T18:19:16.647Z,15.50
2017-09-22T18:21:44.624Z,15.40
2017-09-22T18:24:12.145Z,15.50
2017-09-22T18:26:41.180Z,15.40
2017-09-22T18:29:09.542Z,15.40
2017-09-22T18:31:37.476Z,15.30
2017-09-22T18:34:04.990Z,15.30
2017-09-22T18:36:32.522Z,15.30
2017-09-22T18:39:00.083Z,15.30
2017-09-22T18:41:27.635Z,15.20
2017-09-22T18:43:55.167Z,15.20
2017-09-22T18:46:22.689Z,15.20
2017-09-22T18:48:50.328Z,15.10
2017-09-22T18:51:17.843Z,15.20
2017-09-22T18:53:45.383Z,15.10
2017-09-22T18:56:12.912Z,15.10
2017-09-22T18:58:41.675Z,15.10
2017-09-22T19:01:09.723Z,15.10
2017-09-22T19:03:37.271Z,15.10
2017-09-22T19:06:04.783Z,15.00
2017-09-22T19:08:32.726Z,15.00
2017-09-22T19:11:00.259Z,15.10
2017-09-22T19:13:27.791Z,15.00
2017-09-22T19:15:55.345Z,15.00
2017-09-22T19:18:23.308Z,15.00
2017-09-22T19:20:50.846Z,15.00
2017-09-22T19:23:18.766Z,15.00
2017-09-22T19:25:46.316Z,15.00
2017-09-22T19:28:14.227Z,15.00
2017-09-22T19:30:42.199Z,15.00
2017-09-22T19:33:09.745Z,15.00
2017-09-22T19:35:37.301Z,15.00
2017-09-22T19:38:04.819Z,15.00
2017-09-22T19:40:32.345Z,15.00
2017-09-22T19:42:59.952Z,14.90
2017-09-22T19:45:27.468Z,14.90
2017-09-22T19:47:55.015Z,14.90
2017-09-22T19:50:22.944Z,14.90
2017-09-22T19:52:50.580Z,15.00
2017-09-22T19:55:18.511Z,14.90
2017-09-22T19:57:46.050Z,14.90
2017-09-22T20:00:13.656Z,14.90
2017-09-22T20:02:41.191Z,14.90
2017-09-22T20:05:08.733Z,14.90
2017-09-22T20:07:36.258Z,14.80
2017-09-22T20:10:03.826Z,14.80
2017-09-22T20:12:31.355Z,14.80
2017-09-22T20:14:59.296Z,14.80
2017-09-22T20:17:26.814Z,14.80
2017-09-22T20:19:54.344Z,14.80
2017-09-22T20:22:22.268Z,14.80
2017-09-22T20:24:49.824Z,14.70
2017-09-22T20:27:17.732Z,14.70
2017-09-22T20:29:45.640Z,14.70
2017-09-22T20:32:13.175Z,14.80
2017-09-22T20:34:41.311Z,14.70
2017-09-22T20:37:08.871Z,14.70
2017-09-22T20:39:36.391Z,14.70
2017-09-22T20:42:03.931Z,14.60
2017-09-22T20:44:31.462Z,14.60
2017-09-22T20:46:59.070Z,14.60
2017-09-22T20:49:26.603Z,14.60
2017-09-22T20:51:54.135Z,14.60
2017-09-22T20:54:21.666Z,14.60
2017-09-22T20:56:49.203Z,14.60
2017-09-22T20:59:17.141Z,14.50
2017-09-22T21:01:44.656Z,14.60
2017-09-22T21:04:12.308Z,14.50
2017-09-22T21:06:40.544Z,14.50
2017-09-22T21:09:08.135Z,14.60
2017-09-22T21:11:36.050Z,14.60
2017-09-22T21:14:03.591Z,14.60
2017-09-22T21:16:31.119Z,14.60
2017-09-22T21:18:59.098Z,14.60
2017-09-22T21:21:27.022Z,14.60
2017-09-22T21:23:54.544Z,14.60
2017-09-22T21:26:22.087Z,14.60
2017-09-22T21:28:49.884Z,14.50
2017-09-22T21:31:17.825Z,14.60
2017-09-22T21:33:45.366Z,14.60
2017-09-22T21:36:13.335Z,14.60
2017-09-22T21:38:40.983Z,14.60
2017-09-22T21:41:09.321Z,14.60
2017-09-22T21:43:36.845Z,14.60
2017-09-22T21:46:04.379Z,14.60
2017-09-22T21:48:32.344Z,14.60
2017-09-22T21:50:59.884Z,14.70
2017-09-22T21:53:27.696Z,14.70
2017-09-22T21:55:55.236Z,14.70
2017-09-22T21:58:22.774Z,14.70
2017-09-22T22:00:50.394Z,14.70
2017-09-22T22:06:25.199Z,14.80
2017-09-22T22:08:58.544Z,14.80
2017-09-22T22:11:26.062Z,14.80
2017-09-22T22:13:53.991Z,14.80
2017-09-22T22:16:21.515Z,14.80
2017-09-22T22:18:49.082Z,14.70
2017-09-22T22:21:16.621Z,14.70
2017-09-22T22:23:44.534Z,14.70
2017-09-22T22:26:12.088Z,14.80
2017-09-22T22:28:40.958Z,14.60
2017-09-22T22:31:09.612Z,14.70
2017-09-22T22:33:37.138Z,14.60
2017-09-22T22:36:05.100Z,14.50
2017-09-22T22:38:32.644Z,14.60
2017-09-22T22:41:00.188Z,14.50
2017-09-22T22:43:27.703Z,14.40
2017-09-22T22:45:55.275Z,14.40
2017-09-22T22:48:22.800Z,14.40
2017-09-22T22:50:50.320Z,14.40
2017-09-22T22:53:17.854Z,14.30
2017-09-22T22:55:45.379Z,14.30
2017-09-22T22:58:13.321Z,14.20
2017-09-22T23:00:40.851Z,14.20
2017-09-22T23:03:08.814Z,14.20
2017-09-22T23:05:36.327Z,14.20
2017-09-22T23:08:03.897Z,14.20
2017-09-22T23:10:31.418Z,14.10
2017-09-22T23:12:58.944Z,14.10
2017-09-22T23:15:26.484Z,14.10
2017-09-22T23:17:54.183Z,14.00
2017-09-22T23:20:21.731Z,14.00
2017-09-22T23:22:49.393Z,13.90
2017-09-22T23:25:16.935Z,13.90
2017-09-22T23:27:44.457Z,13.90
2017-09-22T23:30:12.007Z,13.90
2017-09-22T23:32:41.472Z,13.90
2017-09-22T23:35:10.844Z,13.90
2017-09-22T23:37:38.383Z,13.90
2017-09-22T23:40:06.303Z,13.90
2017-09-22T23:42:33.844Z,13.90
2017-09-22T23:45:01.375Z,13.80
2017-09-22T23:47:28.915Z,13.80
2017-09-22T23:49:56.439Z,13.80
2017-09-22T23:52:23.993Z,13.80
2017-09-22T23:54:51.519Z,13.80
2017-09-22T23:57:19.064Z,13.90
2017-09-22T23:59:46.592Z,13.80
